createdAt,value
2022-12-29T00:04:36.233Z,1
2022-12-29T00:10:25.264Z,2.3
2022-12-29T00:16:14.423Z,1.6
2022-12-29T00:24:23.464Z,2.1
2022-12-29T00:30:11.427Z,1.3
2022-12-29T00:36:04.315Z,1.4
2022-12-29T00:41:54.369Z,2
2022-12-29T00:47:44.522Z,2.7
2022-12-29T00:53:35.523Z,2.1
2022-12-29T00:59:25.897Z,4.1
2022-12-29T01:05:20.045Z,3.2
2022-12-29T01:11:12.427Z,1.9
2022-12-29T01:17:02.998Z,0.5
2022-12-29T01:22:54.069Z,0.7
2022-12-29T01:28:44.647Z,0.7
2022-12-29T01:34:37.337Z,0.7
2022-12-29T01:40:32.119Z,1.1
2022-12-29T01:46:24.838Z,1
2022-12-29T01:52:15.785Z,0.9
2022-12-29T01:58:07.230Z,1.1
2022-12-29T02:03:58.253Z,2
2022-12-29T02:09:46.638Z,1.7
2022-12-29T02:15:35.973Z,1.9
2022-12-29T02:21:28.085Z,1
2022-12-29T02:27:21.030Z,1.2
2022-12-29T02:33:11.869Z,1.5
2022-12-29T02:39:04.721Z,1.2
2022-12-29T02:44:55.439Z,1.1
2022-12-29T02:50:45.574Z,1.8
2022-12-29T02:56:37.501Z,1
2022-12-29T03:02:28.648Z,1.1
2022-12-29T03:08:22.729Z,1.1
2022-12-29T03:14:12.608Z,1
2022-12-29T03:20:03.825Z,2.2
2022-12-29T03:25:55.624Z,4.6
2022-12-29T03:31:47.694Z,1.1
2022-12-29T03:37:38.459Z,1.5
2022-12-29T03:43:29.066Z,1.3
2022-12-29T03:49:21.177Z,1
2022-12-29T03:55:12.014Z,1.6
2022-12-29T04:01:04.627Z,2.4
2022-12-29T04:06:55.398Z,1.1
2022-12-29T04:12:46.060Z,1.3
2022-12-29T04:18:37.419Z,1.1
2022-12-29T04:24:29.699Z,1.7
2022-12-29T04:30:22.326Z,2.5
2022-12-29T04:36:13.617Z,1.9
2022-12-29T04:42:04.388Z,1.1
2022-12-29T04:47:54.844Z,1
2022-12-29T04:53:46.289Z,0.8
2022-12-29T04:59:38.368Z,1.5
2022-12-29T05:05:28.495Z,1.6
2022-12-29T05:11:20.655Z,1.2
2022-12-29T05:17:11.999Z,2.1
2022-12-29T05:23:00.420Z,3.3
2022-12-29T05:28:50.707Z,1.8
2022-12-29T05:34:43.033Z,2.5
2022-12-29T05:40:33.196Z,1.8
2022-12-29T05:46:25.145Z,1.6
2022-12-29T05:52:16.256Z,3.5
2022-12-29T05:58:08.891Z,2.7
2022-12-29T06:03:59.266Z,2.9
2022-12-29T06:09:47.539Z,1.4
2022-12-29T06:15:37.542Z,1.9
2022-12-29T06:21:28.348Z,2.2
2022-12-29T06:27:20.502Z,2.8
2022-12-29T06:33:09.737Z,2.5
2022-12-29T06:38:58.739Z,2.1
2022-12-29T06:44:50.173Z,2.1
2022-12-29T06:50:39.728Z,2.3
2022-12-29T06:56:28.631Z,1.4
2022-12-29T07:02:22.625Z,1.8
2022-12-29T07:08:12.213Z,2.7
2022-12-29T07:14:04.984Z,2.5
2022-12-29T07:19:53.815Z,1.9
2022-12-29T07:25:42.952Z,2
2022-12-29T07:31:32.383Z,2
2022-12-29T07:37:23.097Z,2.1
2022-12-29T07:43:11.832Z,1.7
2022-12-29T07:49:04.550Z,1.6
2022-12-29T07:54:54.150Z,2.9
2022-12-29T08:00:45.618Z,2.5
2022-12-29T08:06:34.387Z,1.7
2022-12-29T08:12:23.595Z,1.8
2022-12-29T08:18:14.016Z,3.6
2022-12-29T08:24:04.208Z,3.5
2022-12-29T08:29:55.895Z,2.2
2022-12-29T08:35:46.515Z,3.9
2022-12-29T08:41:38.386Z,3.3
2022-12-29T08:47:29.865Z,2.9
2022-12-29T08:53:20.628Z,3.4
2022-12-29T08:59:12.764Z,6.1
2022-12-29T09:05:04.378Z,4.6
2022-12-29T09:10:55.333Z,2.4
2022-12-29T09:16:46.281Z,3.7
2022-12-29T09:22:37.172Z,4.1
2022-12-29T09:28:28.887Z,5.2
2022-12-29T09:34:20.219Z,5.4
2022-12-29T09:40:11.216Z,4.9
2022-12-29T09:46:02.628Z,6.1
2022-12-29T09:51:55.640Z,9.9
2022-12-29T09:57:47.563Z,5.4
2022-12-29T10:03:38.893Z,3.5
2022-12-29T10:09:28.935Z,4.4
2022-12-29T10:15:19.740Z,5.6
2022-12-29T10:21:10.652Z,3.8
2022-12-29T10:27:01.035Z,5.1
2022-12-29T10:32:51.618Z,3.8
2022-12-29T10:38:43.075Z,5.6
2022-12-29T10:44:32.851Z,5.1
2022-12-29T10:50:23.339Z,5.8
2022-12-29T10:56:13.796Z,5.3
2022-12-29T11:02:05.940Z,4.9
2022-12-29T11:08:02.521Z,4.8
2022-12-29T11:13:51.375Z,7.4
2022-12-29T11:19:46.019Z,6.5
2022-12-29T11:25:38.349Z,5.9
2022-12-29T11:31:29.789Z,8.5
2022-12-29T11:37:17.789Z,7.5
2022-12-29T11:43:05.994Z,9.2
2022-12-29T11:48:56.663Z,7.5
2022-12-29T11:54:45.475Z,7.7
2022-12-29T12:00:33.966Z,9.4
2022-12-29T12:06:24.659Z,9.3
2022-12-29T12:12:14.974Z,9.3
2022-12-29T12:18:05.536Z,7.7
2022-12-29T12:23:54.806Z,8.5
2022-12-29T12:29:47.534Z,7.7
2022-12-29T12:35:37.387Z,7.4
2022-12-29T12:41:27.537Z,6.8
2022-12-29T12:47:18.796Z,7.1
2022-12-29T12:53:08.884Z,8.6
2022-12-29T12:59:01.970Z,13.2
2022-12-29T13:04:58.757Z,6
2022-12-29T13:10:55.556Z,7.7
2022-12-29T13:16:45.538Z,9.5
2022-12-29T13:22:38.206Z,7.9
2022-12-29T13:28:30.144Z,6.2
2022-12-29T13:34:18.883Z,8.8
2022-12-29T13:40:08.557Z,7.2
2022-12-29T13:45:57.541Z,7.7
2022-12-29T13:51:48.247Z,7.8
2022-12-29T13:57:39.224Z,6.7
2022-12-29T14:03:38.149Z,6.9
2022-12-29T14:09:39.233Z,6.9
2022-12-29T14:15:30.692Z,8
2022-12-29T14:21:46.443Z,8
2022-12-29T14:27:55.801Z,9.5
2022-12-29T14:33:53.003Z,7.1
2022-12-29T14:39:50.090Z,8.7
2022-12-29T14:45:46.727Z,7.7
2022-12-29T14:51:39.438Z,8.3
2022-12-29T14:57:30.495Z,8.3
2022-12-29T15:03:21.615Z,7
2022-12-29T15:09:14.912Z,8.3
2022-12-29T15:15:09.136Z,10.4
2022-12-29T15:21:00.412Z,8.3
2022-12-29T15:26:52.009Z,7.2
2022-12-29T15:32:45.399Z,8.2
2022-12-29T15:38:45.553Z,7.6
2022-12-29T15:44:34.795Z,7.9
2022-12-29T15:50:26.252Z,6.9
2022-12-29T15:56:17.669Z,11.5
2022-12-29T16:02:16.224Z,8.4
2022-12-29T16:08:10.370Z,9.8
2022-12-29T16:14:05.841Z,10.2
2022-12-29T16:19:57.331Z,11
2022-12-29T16:25:58.980Z,11
2022-12-29T16:31:51.183Z,9.1
2022-12-29T16:37:41.731Z,6.7
2022-12-29T16:43:31.657Z,9.2
2022-12-29T16:49:29.546Z,10.7
2022-12-29T16:55:18.578Z,8.4
2022-12-29T17:01:08.552Z,11.4
2022-12-29T17:06:59.775Z,9
2022-12-29T17:12:49.541Z,10.5
2022-12-29T17:18:41.068Z,10.1
2022-12-29T17:24:33.648Z,11.7
2022-12-29T17:30:36.511Z,13.5
2022-12-29T17:36:27.983Z,13.9
2022-12-29T17:42:18.007Z,16.9
2022-12-29T17:48:09.050Z,11.6
2022-12-29T17:53:59.829Z,14.8
2022-12-29T17:59:49.607Z,15.5
2022-12-29T18:05:50.100Z,13.9
2022-12-29T18:11:39.871Z,14.4
2022-12-29T18:17:32.519Z,15.4
2022-12-29T18:23:23.463Z,14.6
2022-12-29T18:29:14.051Z,14.7
2022-12-29T18:35:04.028Z,16.2
2022-12-29T18:40:56.343Z,16.3
2022-12-29T18:46:48.768Z,17.5
2022-12-29T18:52:40.832Z,14.5
2022-12-29T18:58:37.810Z,15.6
2022-12-29T19:04:26.625Z,16.5
2022-12-29T19:11:27.435Z,13.1
2022-12-29T19:19:12.033Z,16.3
2022-12-29T19:25:16.975Z,16.6
2022-12-29T19:31:06.755Z,20.1
2022-12-29T19:36:56.958Z,13.8
2022-12-29T19:42:46.030Z,16.3
2022-12-29T19:48:35.936Z,21.6
2022-12-29T19:54:25.181Z,14.1
2022-12-29T20:00:15.652Z,17.2
2022-12-29T20:06:05.164Z,17.5
2022-12-29T20:11:55.112Z,17.2
2022-12-29T20:18:31.314Z,31.2
2022-12-29T20:24:20.434Z,18
2022-12-29T20:30:12.754Z,16.3
2022-12-29T20:36:02.858Z,20.8
2022-12-29T20:41:52.799Z,19.6
2022-12-29T20:47:45.871Z,15.9
2022-12-29T20:53:38.755Z,15.9
2022-12-29T20:59:33.498Z,21.1
2022-12-29T21:05:31.380Z,34.1
2022-12-29T21:11:20.412Z,29.7
2022-12-29T21:17:10.528Z,18
2022-12-29T21:23:10.227Z,19
2022-12-29T21:28:58.749Z,18.9
2022-12-29T21:34:59.435Z,14.2
2022-12-29T21:40:52.192Z,17.7
2022-12-29T21:46:50.233Z,14
2022-12-29T21:52:49.558Z,13.9
2022-12-29T21:58:40.567Z,16.7
2022-12-29T22:04:30.111Z,11.5
2022-12-29T22:10:21.596Z,17.5
2022-12-29T22:16:12.770Z,12.1
2022-12-29T22:22:04.432Z,18.1
2022-12-29T22:28:03.835Z,13.2
2022-12-29T22:33:53.023Z,18.3
2022-12-29T22:39:42.278Z,13.5
2022-12-29T22:45:31.783Z,15.4
2022-12-29T22:51:22.531Z,16
2022-12-29T22:57:12.267Z,18.5
2022-12-29T23:03:02.730Z,15.1
2022-12-29T23:08:51.686Z,17.5
2022-12-29T23:14:40.461Z,16.3
2022-12-29T23:20:29.654Z,13.7
2022-12-29T23:26:20.363Z,14.4
2022-12-29T23:32:10.548Z,17.1
2022-12-29T23:37:59.858Z,19.9
2022-12-29T23:43:49.899Z,15.2
2022-12-29T23:49:40.150Z,16.8
2022-12-29T23:55:30.492Z,19.5
